Time;durP1;ratioP1;P1;durP2;ratioP2;P2;SDS_P1;SDS_P2;PMS_P1;PMS_P2;Temp;Humidity;BMP_temperature;BMP_pressure;BME280_temperature;BME280_humidity;BME280_pressure;Samples;Min_cycle;Max_cycle;Signal;HPM_P1;HPM_P2
2021/10/07 00:00:36;;;;;;;;;;;13.00;97.60;;;;;;4275875;33;43825;-79
2021/10/07 00:03:03;;;;;;;;;;;13.00;97.60;;;;;;4287269;33;43705;-79
2021/10/07 00:05:39;;;;;;;;;;;13.00;97.60;;;;;;4287157;33;42480;-80
2021/10/07 00:08:15;;;;;;;;;;;13.00;97.60;;;;;;4287454;33;45683;-80
2021/10/07 00:10:45;;;;;;;;;;;13.00;97.60;;;;;;4288565;33;43299;-80
2021/10/07 00:13:14;;;;;;;;;;;13.10;97.70;;;;;;4288366;33;43250;-80
2021/10/07 00:15:49;;;;;;;;;;;13.10;97.70;;;;;;4275024;33;42905;-80
2021/10/07 00:18:19;;;;;;;;;;;13.10;97.70;;;;;;4288226;33;42101;-80
2021/10/07 00:20:47;;;;;;;;;;;13.10;97.70;;;;;;4288296;33;43168;-79
2021/10/07 00:23:22;;;;;;;;;;;13.10;97.70;;;;;;4276226;33;20452;-80
2021/10/07 00:25:51;;;;;;;;;;;13.10;97.70;;;;;;4275098;33;45071;-80
2021/10/07 00:28:18;;;;;;;;;;;13.00;97.70;;;;;;4286651;33;43267;-79
2021/10/07 00:30:57;;;;;;;;;;;13.10;97.70;;;;;;4287902;33;43600;-79
2021/10/07 00:33:30;;;;;;;;;;;13.10;97.70;;;;;;4287042;33;43204;-79
2021/10/07 00:36:35;;;;;;;;;;;13.10;97.70;;;;;;4274978;33;44402;-80
2021/10/07 00:39:14;;;;;;;;;;;13.10;97.70;;;;;;4287015;33;43008;-79
2021/10/07 00:41:42;;;;;;;;;;;13.10;97.70;;;;;;4288300;33;43674;-80
2021/10/07 00:44:12;;;;;;;;;;;13.10;97.80;;;;;;4286851;33;42652;-80
2021/10/07 00:46:50;;;;;;;;;;;13.10;97.80;;;;;;4287834;33;42643;-79
2021/10/07 00:49:18;;;;;;;;;;;13.10;97.80;;;;;;4286764;33;45069;-79
2021/10/07 00:51:47;;;;;;;;;;;13.10;97.80;;;;;;4287745;33;42881;-79
2021/10/07 00:54:16;;;;;;;;;;;13.10;97.80;;;;;;4288538;33;20050;-79
2021/10/07 00:56:44;;;;;;;;;;;13.10;97.80;;;;;;4287772;33;44868;-79
2021/10/07 00:59:14;;;;;;;;;;;13.10;97.80;;;;;;4287276;33;42874;-78
2021/10/07 01:01:42;;;;;;;;;;;13.10;97.80;;;;;;4274138;33;44831;-79
2021/10/07 01:04:14;;;;;;;;;;;13.10;97.80;;;;;;4274896;33;45772;-78
2021/10/07 01:06:42;;;;;;;;;;;13.10;97.80;;;;;;4287741;33;43829;-79
2021/10/07 01:09:12;;;;;;;;;;;13.10;97.80;;;;;;4287137;33;43045;-79
2021/10/07 01:11:39;;;;;;;;;;;13.10;97.80;;;;;;4287442;33;42878;-79
2021/10/07 01:14:06;;;;;;;;;;;13.10;97.80;;;;;;4287111;33;43683;-79
2021/10/07 01:16:36;;;;;;;;;;;13.10;97.80;;;;;;4274144;33;44253;-79
2021/10/07 01:19:06;;;;;;;;;;;13.10;97.80;;;;;;4287006;33;43479;-79
2021/10/07 01:21:35;;;;;;;;;;;13.10;97.80;;;;;;4274313;33;44259;-79
2021/10/07 01:24:08;;;;;;;;;;;13.10;97.80;;;;;;4286946;33;44227;-79
2021/10/07 01:26:38;;;;;;;;;;;13.10;97.90;;;;;;4286925;33;42099;-79
2021/10/07 01:29:05;;;;;;;;;;;13.10;97.90;;;;;;4287599;33;44398;-79
2021/10/07 01:31:35;;;;;;;;;;;13.10;97.80;;;;;;4286291;33;43619;-78
2021/10/07 01:34:05;;;;;;;;;;;13.10;97.90;;;;;;4287100;33;43991;-79
2021/10/07 01:36:32;;;;;;;;;;;13.10;97.90;;;;;;4287220;33;44061;-79
2021/10/07 01:39:02;;;;;;;;;;;13.10;97.90;;;;;;4287228;33;43918;-79
2021/10/07 01:41:38;;;;;;;;;;;13.10;97.90;;;;;;4286928;33;42954;-79
2021/10/07 01:44:08;;;;;;;;;;;13.10;97.90;;;;;;4274384;33;45602;-79
2021/10/07 01:46:35;;;;;;;;;;;13.10;97.90;;;;;;4273936;33;42526;-79
2021/10/07 01:49:02;;;;;;;;;;;13.10;97.90;;;;;;4274322;33;42630;-79
2021/10/07 01:51:29;;;;;;;;;;;13.10;97.90;;;;;;4286696;33;45839;-79
2021/10/07 01:53:59;;;;;;;;;;;13.10;97.90;;;;;;4285652;33;43585;-79
2021/10/07 01:56:29;;;;;;;;;;;13.10;97.90;;;;;;4274742;33;20433;-79
2021/10/07 01:58:59;;;;;;;;;;;13.10;97.90;;;;;;4286924;33;43907;-79
2021/10/07 02:01:26;;;;;;;;;;;13.10;97.90;;;;;;4285752;33;44439;-79
2021/10/07 02:04:04;;;;;;;;;;;13.10;97.90;;;;;;4274348;33;43501;-80
2021/10/07 02:06:36;;;;;;;;;;;13.10;97.90;;;;;;4287044;33;43309;-80
2021/10/07 02:09:06;;;;;;;;;;;13.10;98.00;;;;;;4287194;33;44195;-79
2021/10/07 02:11:40;;;;;;;;;;;13.10;98.00;;;;;;4273860;33;42555;-79
2021/10/07 02:14:15;;;;;;;;;;;13.10;98.00;;;;;;4286945;33;43308;-79
2021/10/07 02:16:42;;;;;;;;;;;13.10;97.90;;;;;;4285551;33;42480;-79
2021/10/07 02:19:10;;;;;;;;;;;13.10;97.90;;;;;;4286487;33;42187;-79
2021/10/07 02:21:44;;;;;;;;;;;13.10;98.00;;;;;;4273906;33;43870;-79
2021/10/07 02:24:19;;;;;;;;;;;13.20;98.00;;;;;;4273897;33;44188;-79
2021/10/07 02:26:52;;;;;;;;;;;13.20;97.90;;;;;;4274850;33;19998;-79
2021/10/07 02:29:19;;;;;;;;;;;13.10;97.90;;;;;;4273495;33;42524;-79
2021/10/07 02:31:49;;;;;;;;;;;13.20;97.90;;;;;;4286537;33;42171;-79
2021/10/07 02:34:24;;;;;;;;;;;13.20;97.90;;;;;;4273802;33;43757;-80
2021/10/07 02:36:57;;;;;;;;;;;13.20;97.90;;;;;;4274127;33;42843;-79
2021/10/07 02:39:27;;;;;;;;;;;13.20;97.90;;;;;;4287082;33;43869;-79
2021/10/07 02:42:00;;;;;;;;;;;13.20;97.90;;;;;;4285296;33;43803;-79
2021/10/07 02:44:30;;;;;;;;;;;13.20;97.90;;;;;;4286695;33;43789;-79
2021/10/07 02:46:57;;;;;;;;;;;13.10;97.90;;;;;;4286622;33;44188;-79
2021/10/07 02:49:24;;;;;;;;;;;13.20;97.90;;;;;;4286661;33;45142;-79
2021/10/07 02:51:52;;;;;;;;;;;13.20;97.90;;;;;;4286642;33;43985;-79
2021/10/07 02:54:28;;;;;;;;;;;13.20;97.90;;;;;;4286227;33;43010;-78
2021/10/07 02:56:55;;;;;;;;;;;13.20;97.90;;;;;;4286872;33;20394;-79
2021/10/07 02:59:28;;;;;;;;;;;13.20;97.90;;;;;;4276778;33;43750;-79
2021/10/07 03:01:58;;;;;;;;;;;13.20;97.90;;;;;;4289272;33;42653;-80
2021/10/07 03:04:33;;;;;;;;;;;13.20;97.90;;;;;;4276126;33;42871;-79
2021/10/07 03:07:11;;;;;;;;;;;13.20;97.90;;;;;;4289188;33;46057;-79
2021/10/07 03:09:49;;;;;;;;;;;13.20;97.90;;;;;;4276135;33;43310;-79
2021/10/07 03:12:34;;;;;;;;;;;13.20;97.90;;;;;;4288165;33;42870;-79
2021/10/07 03:15:14;;;;;;;;;;;13.20;97.90;;;;;;4288122;33;45778;-80
2021/10/07 03:17:49;;;;;;;;;;;13.20;97.90;;;;;;4288706;33;41728;-79
2021/10/07 03:20:22;;;;;;;;;;;13.20;97.90;;;;;;4289264;33;44101;-79
2021/10/07 03:22:55;;;;;;;;;;;13.20;97.90;;;;;;4275827;33;42833;-79
2021/10/07 03:25:27;;;;;;;;;;;13.20;97.90;;;;;;4288998;33;41850;-78
2021/10/07 03:28:06;;;;;;;;;;;13.20;97.90;;;;;;4276861;33;20032;-79
2021/10/07 03:30:40;;;;;;;;;;;13.20;97.90;;;;;;4289159;33;42153;-79
2021/10/07 03:33:22;;;;;;;;;;;13.20;97.90;;;;;;4276834;33;44009;-79
2021/10/07 03:35:49;;;;;;;;;;;13.20;97.90;;;;;;4288951;33;43349;-79
2021/10/07 03:38:29;;;;;;;;;;;13.20;97.90;;;;;;4288931;33;44691;-79
2021/10/07 03:41:04;;;;;;;;;;;13.20;97.90;;;;;;4288838;33;45289;-79
2021/10/07 03:43:39;;;;;;;;;;;13.20;97.90;;;;;;4275901;33;42428;-80
2021/10/07 03:46:17;;;;;;;;;;;13.20;97.90;;;;;;4287695;33;43801;-79
2021/10/07 03:48:50;;;;;;;;;;;13.20;97.90;;;;;;4287863;33;43161;-79
2021/10/07 03:51:25;;;;;;;;;;;13.30;97.90;;;;;;4288505;33;44360;-79
2021/10/07 03:54:07;;;;;;;;;;;13.20;97.90;;;;;;4288673;33;43863;-79
2021/10/07 03:56:40;;;;;;;;;;;13.30;97.90;;;;;;4288858;33;44225;-79
2021/10/07 03:59:15;;;;;;;;;;;13.20;97.90;;;;;;4276084;33;43839;-79
2021/10/07 04:01:45;;;;;;;;;;;13.20;97.90;;;;;;4288520;33;44371;-78
2021/10/07 04:04:16;;;;;;;;;;;13.30;97.90;;;;;;4275408;33;43042;-79
2021/10/07 04:06:49;;;;;;;;;;;13.30;97.90;;;;;;4286942;33;45012;-79
2021/10/07 04:09:22;;;;;;;;;;;13.20;97.90;;;;;;4274250;33;43141;-79
2021/10/07 04:12:00;;;;;;;;;;;13.20;97.90;;;;;;4275390;33;43386;-79
2021/10/07 04:14:39;;;;;;;;;;;13.20;97.90;;;;;;4275136;33;43040;-79
2021/10/07 04:17:12;;;;;;;;;;;13.30;98.00;;;;;;4275369;33;43322;-79
2021/10/07 04:19:50;;;;;;;;;;;13.20;97.90;;;;;;4288432;33;44176;-78
2021/10/07 04:22:20;;;;;;;;;;;13.30;98.00;;;;;;4288527;33;43077;-79
2021/10/07 04:24:51;;;;;;;;;;;13.20;98.00;;;;;;4286926;33;43425;-79
2021/10/07 04:27:24;;;;;;;;;;;13.30;98.00;;;;;;4287997;33;42654;-79
2021/10/07 04:29:54;;;;;;;;;;;13.30;98.00;;;;;;4275649;33;43844;-79
2021/10/07 04:32:26;;;;;;;;;;;13.30;98.00;;;;;;4288157;33;42168;-79
2021/10/07 04:34:56;;;;;;;;;;;13.30;98.00;;;;;;4288177;33;43062;-79
2021/10/07 04:37:36;;;;;;;;;;;13.30;98.00;;;;;;4275564;33;43770;-79
2021/10/07 04:40:07;;;;;;;;;;;13.30;98.00;;;;;;4287095;33;43265;-79
2021/10/07 04:42:39;;;;;;;;;;;13.30;98.10;;;;;;4275452;33;44232;-79
2021/10/07 04:45:09;;;;;;;;;;;13.30;98.00;;;;;;4287965;33;43858;-79
2021/10/07 04:47:45;;;;;;;;;;;13.30;98.00;;;;;;4287601;33;44220;-79
2021/10/07 04:50:15;;;;;;;;;;;13.30;98.00;;;;;;4287695;33;42686;-79
2021/10/07 04:52:51;;;;;;;;;;;13.30;98.00;;;;;;4274723;33;44802;-79
2021/10/07 04:55:24;;;;;;;;;;;13.30;98.00;;;;;;4287783;33;43798;-79
2021/10/07 04:57:51;;;;;;;;;;;13.30;98.00;;;;;;4275150;33;45809;-79
2021/10/07 05:00:21;;;;;;;;;;;13.30;98.00;;;;;;4287393;33;43198;-79
2021/10/07 05:02:54;;;;;;;;;;;13.30;98.00;;;;;;4287443;33;44309;-79
2021/10/07 05:05:30;;;;;;;;;;;13.30;98.00;;;;;;4274716;33;42645;-79
2021/10/07 05:07:57;;;;;;;;;;;13.30;98.00;;;;;;4274117;33;42043;-79
2021/10/07 05:10:33;;;;;;;;;;;13.30;98.00;;;;;;4287438;33;42202;-79
2021/10/07 05:13:09;;;;;;;;;;;13.30;98.00;;;;;;4274860;33;43754;-79
2021/10/07 05:15:47;;;;;;;;;;;13.30;98.00;;;;;;4287240;33;42742;-79
2021/10/07 05:18:17;;;;;;;;;;;13.30;98.00;;;;;;4274197;33;43958;-79
2021/10/07 05:20:50;;;;;;;;;;;13.30;98.00;;;;;;4285723;33;43486;-79
2021/10/07 05:23:17;;;;;;;;;;;13.30;98.10;;;;;;4274388;33;42885;-79
2021/10/07 05:25:53;;;;;;;;;;;13.30;98.10;;;;;;4286062;33;43844;-79
2021/10/07 05:28:28;;;;;;;;;;;13.30;98.00;;;;;;4287238;33;43316;-79
2021/10/07 05:30:58;;;;;;;;;;;13.30;98.00;;;;;;4274894;33;20014;-79
2021/10/07 05:33:32;;;;;;;;;;;13.30;98.00;;;;;;4273990;33;42877;-79
2021/10/07 05:36:07;;;;;;;;;;;13.30;98.00;;;;;;4287467;33;43299;-79
2021/10/07 05:38:42;;;;;;;;;;;13.30;98.00;;;;;;4287226;33;44711;-79
2021/10/07 05:41:11;;;;;;;;;;;13.30;98.10;;;;;;4287261;33;44875;-79
2021/10/07 05:43:50;;;;;;;;;;;13.30;98.10;;;;;;4287226;33;45715;-79
2021/10/07 05:46:23;;;;;;;;;;;13.30;98.10;;;;;;4287326;33;45911;-79
2021/10/07 05:48:53;;;;;;;;;;;13.30;98.10;;;;;;4287289;33;43356;-79
2021/10/07 05:51:23;;;;;;;;;;;13.30;98.10;;;;;;4286218;33;43220;-79
2021/10/07 05:53:59;;;;;;;;;;;13.30;98.00;;;;;;4274056;33;42783;-79
2021/10/07 05:56:34;;;;;;;;;;;13.30;98.00;;;;;;4273706;33;44256;-79
2021/10/07 05:59:13;;;;;;;;;;;13.30;98.00;;;;;;4274581;33;44275;-79
2021/10/07 06:01:45;;;;;;;;;;;13.30;98.00;;;;;;4287836;33;20050;-79
2021/10/07 06:04:24;;;;;;;;;;;13.30;98.00;;;;;;4286012;33;44306;-79
2021/10/07 06:06:59;;;;;;;;;;;13.30;98.00;;;;;;4285847;33;45212;-79
2021/10/07 06:09:31;;;;;;;;;;;13.30;98.00;;;;;;4286787;33;43654;-79
2021/10/07 06:12:04;;;;;;;;;;;13.30;98.00;;;;;;4286060;33;43270;-79
2021/10/07 06:14:31;;;;;;;;;;;13.30;98.10;;;;;;4287159;33;45052;-79
2021/10/07 06:17:06;;;;;;;;;;;13.30;98.00;;;;;;4286934;33;43714;-79
2021/10/07 06:19:40;;;;;;;;;;;13.30;98.00;;;;;;4286813;33;41873;-79
2021/10/07 06:22:19;;;;;;;;;;;13.30;98.10;;;;;;4286961;33;42981;-79
2021/10/07 06:24:53;;;;;;;;;;;13.30;98.10;;;;;;4273916;33;42868;-79
2021/10/07 06:27:29;;;;;;;;;;;13.30;98.00;;;;;;4273989;33;43907;-79
2021/10/07 06:29:56;;;;;;;;;;;13.30;98.00;;;;;;4285455;33;44049;-79
2021/10/07 06:32:23;;;;;;;;;;;13.30;98.00;;;;;;4275402;33;20066;-79
2021/10/07 06:34:50;;;;;;;;;;;13.30;98.00;;;;;;4289342;33;43655;-79
2021/10/07 06:37:19;;;;;;;;;;;13.30;98.00;;;;;;4289794;33;43706;-79
2021/10/07 06:39:46;;;;;;;;;;;13.30;98.00;;;;;;4289339;33;43482;-79
2021/10/07 06:42:13;;;;;;;;;;;13.30;98.00;;;;;;4288303;33;43898;-79
2021/10/07 06:44:40;;;;;;;;;;;13.30;98.00;;;;;;4289335;33;43955;-79
2021/10/07 06:47:07;;;;;;;;;;;13.30;98.00;;;;;;4289577;33;43112;-79
2021/10/07 06:49:34;;;;;;;;;;;13.30;98.00;;;;;;4289170;33;42933;-79
2021/10/07 06:52:03;;;;;;;;;;;13.30;98.00;;;;;;4289167;33;42850;-79
2021/10/07 06:54:30;;;;;;;;;;;13.30;98.00;;;;;;4289468;33;46118;-79
2021/10/07 06:56:57;;;;;;;;;;;13.30;98.00;;;;;;4289053;33;44170;-79
2021/10/07 06:59:24;;;;;;;;;;;13.30;98.00;;;;;;4289289;33;43576;-79
2021/10/07 07:01:51;;;;;;;;;;;13.40;98.10;;;;;;4288974;33;44249;-79
2021/10/07 07:04:19;;;;;;;;;;;13.40;98.10;;;;;;4288981;33;42670;-79
2021/10/07 07:06:46;;;;;;;;;;;13.30;98.00;;;;;;4289340;33;43543;-79
2021/10/07 07:09:13;;;;;;;;;;;13.30;98.00;;;;;;4276066;33;42217;-80
2021/10/07 07:11:40;;;;;;;;;;;13.30;98.00;;;;;;4288820;33;43710;-79
2021/10/07 07:14:07;;;;;;;;;;;13.40;98.10;;;;;;4275973;33;41911;-79
2021/10/07 07:16:34;;;;;;;;;;;13.30;98.00;;;;;;4288776;33;42230;-80
2021/10/07 07:19:01;;;;;;;;;;;13.30;98.00;;;;;;4288731;33;43302;-80
2021/10/07 07:21:31;;;;;;;;;;;13.40;98.00;;;;;;4289195;33;43715;-79
2021/10/07 07:24:00;;;;;;;;;;;13.30;98.00;;;;;;4289049;33;44906;-80
2021/10/07 07:26:28;;;;;;;;;;;13.30;98.00;;;;;;4288787;33;42889;-80
2021/10/07 07:28:55;;;;;;;;;;;13.40;98.00;;;;;;4288731;33;42518;-79
2021/10/07 07:31:23;;;;;;;;;;;13.40;98.00;;;;;;4288536;33;43854;-79
2021/10/07 07:33:50;;;;;;;;;;;13.30;98.00;;;;;;4288491;33;42167;-79
2021/10/07 07:36:18;;;;;;;;;;;13.30;98.10;;;;;;4276048;33;43131;-79
2021/10/07 07:38:45;;;;;;;;;;;13.30;98.10;;;;;;4275512;33;42070;-80
2021/10/07 07:41:32;;;;;;;;;;;13.30;98.10;;;;;;4288942;33;45650;-79
2021/10/07 07:43:59;;;;;;;;;;;13.30;98.10;;;;;;4275356;33;43674;-79
2021/10/07 07:46:26;;;;;;;;;;;13.30;98.00;;;;;;4288200;33;46014;-80
2021/10/07 07:48:53;;;;;;;;;;;13.40;98.10;;;;;;4288670;33;45858;-80
2021/10/07 07:51:21;;;;;;;;;;;13.40;98.10;;;;;;4288595;33;43820;-80
2021/10/07 07:53:49;;;;;;;;;;;13.40;98.10;;;;;;4288523;33;42870;-80
2021/10/07 07:56:16;;;;;;;;;;;13.30;98.10;;;;;;4288561;33;42710;-80
2021/10/07 07:58:43;;;;;;;;;;;13.30;98.10;;;;;;4288175;33;43463;-79
2021/10/07 08:01:10;;;;;;;;;;;13.30;98.10;;;;;;4288702;33;43061;-79
2021/10/07 08:03:37;;;;;;;;;;;13.30;98.10;;;;;;4275559;33;42152;-79
2021/10/07 08:06:04;;;;;;;;;;;13.40;98.20;;;;;;4288138;33;43808;-79
2021/10/07 08:08:31;;;;;;;;;;;13.40;98.10;;;;;;4288225;33;43695;-79
2021/10/07 08:10:58;;;;;;;;;;;13.30;98.00;;;;;;4275091;33;42595;-79
2021/10/07 08:13:25;;;;;;;;;;;13.30;98.10;;;;;;4288091;33;43965;-79
2021/10/07 08:15:52;;;;;;;;;;;13.40;98.20;;;;;;4275494;33;44179;-79
2021/10/07 08:18:20;;;;;;;;;;;13.30;98.10;;;;;;4275439;33;42777;-80
2021/10/07 08:20:47;;;;;;;;;;;13.40;98.10;;;;;;4288010;33;42640;-79
2021/10/07 08:23:14;;;;;;;;;;;13.40;98.20;;;;;;4288101;33;43930;-79
2021/10/07 08:25:42;;;;;;;;;;;13.40;98.20;;;;;;4274875;33;43675;-79
2021/10/07 08:28:09;;;;;;;;;;;13.40;98.20;;;;;;4287761;33;44298;-80
2021/10/07 08:30:36;;;;;;;;;;;13.40;98.20;;;;;;4287773;33;42233;-79
2021/10/07 08:33:03;;;;;;;;;;;13.40;98.20;;;;;;4288137;33;42036;-79
2021/10/07 08:35:31;;;;;;;;;;;13.40;98.20;;;;;;4275116;33;42909;-79
2021/10/07 08:37:59;;;;;;;;;;;13.40;98.20;;;;;;4287861;33;43009;-79
2021/10/07 08:40:26;;;;;;;;;;;13.40;98.20;;;;;;4287696;33;42565;-79
2021/10/07 08:42:53;;;;;;;;;;;13.40;98.20;;;;;;4274713;33;43986;-80
2021/10/07 08:45:20;;;;;;;;;;;13.40;98.20;;;;;;4274515;33;43578;-79
2021/10/07 08:47:47;;;;;;;;;;;13.40;98.20;;;;;;4287683;33;42811;-79
2021/10/07 08:50:16;;;;;;;;;;;13.40;98.30;;;;;;4286549;33;42552;-79
2021/10/07 08:52:43;;;;;;;;;;;13.40;98.30;;;;;;4286986;33;44363;-80
2021/10/07 08:55:10;;;;;;;;;;;13.40;98.30;;;;;;4287437;33;44864;-80
2021/10/07 08:57:38;;;;;;;;;;;13.40;98.30;;;;;;4287720;33;42968;-80
2021/10/07 09:00:06;;;;;;;;;;;13.40;98.30;;;;;;4287316;33;42868;-80
2021/10/07 09:02:33;;;;;;;;;;;13.40;98.30;;;;;;4287420;33;43689;-79
2021/10/07 09:05:06;;;;;;;;;;;13.40;98.30;;;;;;4287755;33;43268;-80
2021/10/07 09:07:33;;;;;;;;;;;13.40;98.30;;;;;;4287791;33;43478;-79
2021/10/07 09:10:00;;;;;;;;;;;13.40;98.30;;;;;;4287425;33;42642;-79
2021/10/07 09:12:28;;;;;;;;;;;13.50;98.30;;;;;;4274622;33;43675;-79
2021/10/07 09:14:56;;;;;;;;;;;13.40;98.30;;;;;;4287556;33;43033;-79
2021/10/07 09:17:23;;;;;;;;;;;13.50;98.30;;;;;;4286067;33;42966;-79
2021/10/07 09:19:51;;;;;;;;;;;13.50;98.30;;;;;;4287051;33;43038;-80
2021/10/07 09:22:24;;;;;;;;;;;13.50;98.30;;;;;;4287761;33;43885;-80
2021/10/07 09:24:52;;;;;;;;;;;13.50;98.30;;;;;;4274571;33;42037;-79
2021/10/07 09:27:21;;;;;;;;;;;13.50;98.30;;;;;;4287360;33;44180;-79
2021/10/07 09:29:48;;;;;;;;;;;13.50;98.30;;;;;;4286877;33;43721;-80
2021/10/07 09:32:46;;;;;;;;;;;13.50;98.30;;;;;;4274147;33;42718;-80
2021/10/07 09:35:14;;;;;;;;;;;13.50;98.30;;;;;;4287461;33;20375;-79
2021/10/07 09:37:42;;;;;;;;;;;13.50;98.30;;;;;;4286125;33;44241;-79
2021/10/07 09:40:13;;;;;;;;;;;13.50;98.40;;;;;;4286843;33;44368;-79
2021/10/07 09:42:46;;;;;;;;;;;13.60;98.40;;;;;;4286963;33;43020;-79
2021/10/07 09:45:27;;;;;;;;;;;13.50;98.40;;;;;;4287329;33;43507;-79
2021/10/07 09:48:02;;;;;;;;;;;13.50;98.40;;;;;;4287242;33;43188;-80
2021/10/07 09:50:30;;;;;;;;;;;13.60;98.40;;;;;;4286711;33;43173;-79
2021/10/07 09:53:23;;;;;;;;;;;13.60;98.40;;;;;;4274258;33;43698;-79
2021/10/07 09:55:50;;;;;;;;;;;13.60;98.40;;;;;;4284205;33;43659;-79
2021/10/07 09:58:18;;;;;;;;;;;13.60;98.40;;;;;;4287176;33;42889;-80
2021/10/07 10:00:46;;;;;;;;;;;13.60;98.40;;;;;;4287023;33;43769;-79
2021/10/07 10:03:14;;;;;;;;;;;13.60;98.40;;;;;;4286659;33;43486;-79
2021/10/07 10:05:42;;;;;;;;;;;13.70;98.40;;;;;;4287641;33;20003;-80
2021/10/07 10:08:10;;;;;;;;;;;13.70;98.40;;;;;;4273583;33;44348;-80
2021/10/07 10:10:39;;;;;;;;;;;13.70;98.40;;;;;;4286879;33;43281;-79
2021/10/07 10:13:06;;;;;;;;;;;13.70;98.40;;;;;;4286986;33;43882;-79
2021/10/07 10:15:34;;;;;;;;;;;13.70;98.40;;;;;;4286571;33;43063;-79
2021/10/07 10:18:11;;;;;;;;;;;13.80;98.40;;;;;;4286983;33;44225;-80
2021/10/07 10:20:43;;;;;;;;;;;13.80;98.40;;;;;;4274411;33;44208;-79
2021/10/07 10:23:17;;;;;;;;;;;13.80;98.40;;;;;;4286778;33;43243;-79
2021/10/07 10:25:56;;;;;;;;;;;13.80;98.40;;;;;;4286933;33;42504;-79
2021/10/07 10:28:27;;;;;;;;;;;13.80;98.40;;;;;;4286342;33;43957;-80
2021/10/07 10:31:01;;;;;;;;;;;13.90;98.50;;;;;;4287001;33;44280;-80
2021/10/07 10:33:29;;;;;;;;;;;13.90;98.40;;;;;;4286990;33;43202;-79
2021/10/07 10:35:57;;;;;;;;;;;13.90;98.40;;;;;;4286599;33;20047;-80
2021/10/07 10:38:26;;;;;;;;;;;13.90;98.30;;;;;;4286298;33;44122;-80
2021/10/07 10:40:53;;;;;;;;;;;13.90;98.30;;;;;;4286444;33;42965;-79
2021/10/07 10:43:23;;;;;;;;;;;14.00;98.40;;;;;;4285345;33;43850;-80
2021/10/07 10:45:53;;;;;;;;;;;14.00;98.40;;;;;;4286733;33;42896;-80
2021/10/07 10:48:39;;;;;;;;;;;14.00;98.40;;;;;;4286960;33;42867;-80
2021/10/07 10:51:10;;;;;;;;;;;14.00;98.30;;;;;;4286278;33;42289;-80
2021/10/07 10:54:13;;;;;;;;;;;14.00;98.30;;;;;;4273971;33;43916;-81
2021/10/07 10:56:42;;;;;;;;;;;14.00;98.30;;;;;;4262983;33;43407;-81
2021/10/07 10:59:22;;;;;;;;;;;14.00;98.30;;;;;;4286597;33;43180;-80
2021/10/07 11:02:08;;;;;;;;;;;14.10;98.30;;;;;;4286626;33;44401;-80
2021/10/07 11:04:46;;;;;;;;;;;14.10;98.30;;;;;;4273731;33;44228;-81
2021/10/07 11:07:22;;;;;;;;;;;14.10;98.30;;;;;;4287215;33;20424;-80
2021/10/07 11:09:53;;;;;;;;;;;14.10;98.30;;;;;;4286550;33;43717;-80
2021/10/07 11:12:20;;;;;;;;;;;14.00;98.30;;;;;;4286868;33;43681;-80
2021/10/07 11:14:47;;;;;;;;;;;14.10;98.40;;;;;;4286378;33;42631;-79
2021/10/07 11:17:15;;;;;;;;;;;14.10;98.50;;;;;;4286523;33;42634;-80
2021/10/07 11:19:42;;;;;;;;;;;14.10;98.40;;;;;;4288255;33;43017;-80
2021/10/07 11:22:09;;;;;;;;;;;14.10;98.40;;;;;;4289168;33;43482;-80
2021/10/07 11:24:50;;;;;;;;;;;14.20;98.40;;;;;;4288601;33;43708;-79
2021/10/07 11:27:30;;;;;;;;;;;14.20;98.40;;;;;;4287947;33;43752;-80
2021/10/07 11:29:58;;;;;;;;;;;14.20;98.40;;;;;;4288605;33;42804;-80
2021/10/07 11:32:25;;;;;;;;;;;14.30;98.40;;;;;;4287862;33;44219;-80
2021/10/07 11:35:11;;;;;;;;;;;14.30;98.40;;;;;;4288967;33;43843;-80
2021/10/07 11:37:53;;;;;;;;;;;14.40;98.40;;;;;;4289552;33;20043;-80
2021/10/07 11:40:27;;;;;;;;;;;14.40;98.30;;;;;;4289080;33;43820;-81
2021/10/07 11:42:58;;;;;;;;;;;14.40;98.30;;;;;;4288428;33;44844;-80
2021/10/07 11:45:30;;;;;;;;;;;14.40;98.20;;;;;;4287384;33;43561;-80
2021/10/07 11:47:59;;;;;;;;;;;14.50;98.30;;;;;;4287770;33;43227;-80
2021/10/07 11:50:26;;;;;;;;;;;14.50;98.20;;;;;;4288861;33;43189;-80
2021/10/07 11:52:55;;;;;;;;;;;14.50;98.20;;;;;;4288313;33;43756;-80
2021/10/07 11:55:23;;;;;;;;;;;14.60;98.20;;;;;;4288748;33;43229;-80
2021/10/07 11:57:57;;;;;;;;;;;14.60;98.20;;;;;;4288662;33;43536;-80
2021/10/07 12:00:31;;;;;;;;;;;14.60;98.20;;;;;;4288205;33;42553;-80
2021/10/07 12:03:17;;;;;;;;;;;14.60;98.20;;;;;;4288483;33;43725;-81
2021/10/07 12:05:46;;;;;;;;;;;14.60;98.20;;;;;;4288584;33;44852;-81
2021/10/07 12:08:16;;;;;;;;;;;14.60;98.20;;;;;;4288431;33;19999;-81
2021/10/07 12:10:48;;;;;;;;;;;14.60;98.20;;;;;;4274945;33;43797;-80
2021/10/07 12:13:19;;;;;;;;;;;14.60;98.20;;;;;;4275816;33;43719;-81
2021/10/07 12:15:50;;;;;;;;;;;14.60;98.10;;;;;;4287998;33;43465;-80
2021/10/07 12:18:18;;;;;;;;;;;14.60;98.10;;;;;;4288377;33;43753;-81
2021/10/07 12:20:59;;;;;;;;;;;14.60;98.10;;;;;;4288520;33;43606;-81
2021/10/07 12:23:27;;;;;;;;;;;14.60;98.10;;;;;;4275366;33;43263;-80
2021/10/07 12:25:56;;;;;;;;;;;14.60;98.20;;;;;;4274861;33;42127;-81
2021/10/07 12:28:24;;;;;;;;;;;14.60;98.20;;;;;;4287881;33;42175;-81
2021/10/07 12:30:54;;;;;;;;;;;14.60;98.10;;;;;;4286374;33;44251;-81
2021/10/07 12:33:21;;;;;;;;;;;14.60;98.20;;;;;;4288140;33;44280;-80
2021/10/07 12:35:55;;;;;;;;;;;14.60;98.20;;;;;;4274890;33;44260;-81
2021/10/07 12:38:22;;;;;;;;;;;14.70;98.20;;;;;;4289262;33;20145;-80
2021/10/07 12:40:54;;;;;;;;;;;14.70;98.20;;;;;;4287713;33;43654;-80
2021/10/07 12:43:21;;;;;;;;;;;14.70;98.20;;;;;;4288067;33;42856;-81
2021/10/07 12:46:02;;;;;;;;;;;14.70;98.20;;;;;;4287980;33;42637;-80
2021/10/07 12:48:46;;;;;;;;;;;14.70;98.20;;;;;;4287839;33;45032;-80
2021/10/07 12:51:13;;;;;;;;;;;14.70;98.20;;;;;;4286823;33;44251;-80
2021/10/07 12:53:41;;;;;;;;;;;14.80;98.20;;;;;;4287434;33;43180;-81
2021/10/07 12:56:12;;;;;;;;;;;14.80;98.20;;;;;;4286293;33;43276;-80
2021/10/07 12:58:45;;;;;;;;;;;14.80;98.10;;;;;;4286750;33;43970;-80
2021/10/07 13:01:13;;;;;;;;;;;14.80;98.10;;;;;;4274624;33;44854;-80
2021/10/07 13:03:40;;;;;;;;;;;14.90;98.10;;;;;;4287385;33;42660;-80
2021/10/07 13:06:24;;;;;;;;;;;14.90;98.10;;;;;;4287748;33;43202;-80
2021/10/07 13:08:51;;;;;;;;;;;14.90;98.10;;;;;;4287843;33;43855;-80
2021/10/07 13:11:18;;;;;;;;;;;14.90;98.10;;;;;;4287628;33;46045;-80
2021/10/07 13:13:46;;;;;;;;;;;15.00;98.10;;;;;;4287741;33;43937;-80
2021/10/07 13:16:13;;;;;;;;;;;15.00;98.10;;;;;;4281603;33;43230;-80
2021/10/07 13:18:40;;;;;;;;;;;15.00;98.10;;;;;;4287434;33;42666;-81
2021/10/07 13:21:07;;;;;;;;;;;15.00;98.00;;;;;;4287584;33;44220;-80
2021/10/07 13:23:34;;;;;;;;;;;15.00;98.00;;;;;;4287489;33;43226;-80
2021/10/07 13:26:01;;;;;;;;;;;15.10;98.00;;;;;;4286105;33;42466;-80
2021/10/07 13:28:28;;;;;;;;;;;15.10;98.00;;;;;;4287045;33;42415;-80
2021/10/07 13:30:56;;;;;;;;;;;15.10;98.00;;;;;;4287064;33;42809;-80
2021/10/07 13:33:25;;;;;;;;;;;15.10;98.00;;;;;;4287498;33;43900;-80
2021/10/07 13:35:52;;;;;;;;;;;15.20;98.00;;;;;;4286090;33;43048;-80
2021/10/07 13:38:22;;;;;;;;;;;15.20;98.00;;;;;;4286884;33;42113;-80
2021/10/07 13:40:55;;;;;;;;;;;15.20;98.00;;;;;;4287142;33;44853;-80
2021/10/07 13:43:22;;;;;;;;;;;15.20;98.00;;;;;;4274160;33;43383;-80
2021/10/07 13:45:49;;;;;;;;;;;15.30;98.00;;;;;;4287225;33;43185;-81
2021/10/07 13:48:17;;;;;;;;;;;15.30;98.00;;;;;;4274369;33;43724;-80
2021/10/07 13:50:51;;;;;;;;;;;15.30;98.00;;;;;;4273807;33;43031;-80
2021/10/07 13:53:18;;;;;;;;;;;15.30;98.00;;;;;;4286189;33;43874;-80
2021/10/07 13:55:45;;;;;;;;;;;15.30;97.90;;;;;;4273923;33;42853;-80
2021/10/07 13:58:12;;;;;;;;;;;15.40;97.90;;;;;;4286703;33;42359;-80
2021/10/07 14:00:40;;;;;;;;;;;15.40;97.90;;;;;;4286012;33;44236;-80
2021/10/07 14:03:08;;;;;;;;;;;15.40;97.90;;;;;;4273854;33;43219;-80
2021/10/07 14:05:36;;;;;;;;;;;15.50;97.90;;;;;;4273783;33;43018;-80
2021/10/07 14:08:05;;;;;;;;;;;15.40;97.80;;;;;;4286603;33;42393;-81
2021/10/07 14:10:33;;;;;;;;;;;15.50;97.80;;;;;;4285421;33;42835;-80
2021/10/07 14:13:00;;;;;;;;;;;15.50;97.80;;;;;;4286854;33;43835;-80
2021/10/07 14:15:28;;;;;;;;;;;15.50;97.80;;;;;;4285457;33;43281;-80
2021/10/07 14:17:56;;;;;;;;;;;15.50;97.70;;;;;;4285837;33;42874;-80
2021/10/07 14:20:23;;;;;;;;;;;15.50;97.70;;;;;;4286589;33;42162;-80
2021/10/07 14:22:51;;;;;;;;;;;15.60;97.70;;;;;;4286641;33;43175;-80
2021/10/07 14:25:20;;;;;;;;;;;15.60;97.60;;;;;;4273588;33;43566;-80
2021/10/07 14:27:48;;;;;;;;;;;15.60;97.60;;;;;;4286773;33;43051;-80
2021/10/07 14:30:18;;;;;;;;;;;15.60;97.60;;;;;;4286730;33;42914;-80
2021/10/07 14:32:45;;;;;;;;;;;15.60;97.60;;;;;;4273491;33;43714;-80
2021/10/07 14:35:12;;;;;;;;;;;15.60;97.50;;;;;;4285555;33;42964;-80
2021/10/07 14:37:39;;;;;;;;;;;15.70;97.60;;;;;;4286637;33;42519;-80